createdAt,value
2018-11-28T00:00:10.729Z,20.63
2018-11-28T00:02:38.817Z,21.50
2018-11-28T00:05:13.333Z,20.83
2018-11-28T00:07:41.565Z,28.90
2018-11-28T00:10:12.137Z,22.53
2018-11-28T00:12:40.087Z,22.37
2018-11-28T00:15:08.903Z,24.43
2018-11-28T00:17:37.094Z,24.30
2018-11-28T00:20:05.693Z,24.17
2018-11-28T00:22:33.621Z,23.10
2018-11-28T00:25:01.578Z,28.27
2018-11-28T00:27:29.429Z,24.53
2018-11-28T00:29:57.267Z,26.07
2018-11-28T00:32:25.189Z,30.10
2018-11-28T00:34:53.067Z,26.17
2018-11-28T00:37:20.945Z,30.33
2018-11-28T00:39:48.879Z,24.50
2018-11-28T00:42:16.795Z,25.57
2018-11-28T00:44:44.658Z,23.73
2018-11-28T00:47:12.624Z,28.07
2018-11-28T00:49:40.538Z,27.17
2018-11-28T00:52:08.507Z,27.93
2018-11-28T00:54:36.350Z,28.57
2018-11-28T00:57:04.281Z,26.60
2018-11-28T00:59:32.201Z,24.70
2018-11-28T01:02:00.065Z,26.00
2018-11-28T01:04:28.082Z,25.47
2018-11-28T01:06:56.214Z,29.63
2018-11-28T01:09:24.068Z,30.30
2018-11-28T01:11:52.018Z,27.87
2018-11-28T01:14:19.911Z,28.73
2018-11-28T01:16:47.767Z,31.87
2018-11-28T01:19:15.653Z,28.17
2018-11-28T01:21:43.598Z,27.57
2018-11-28T01:24:11.465Z,32.47
2018-11-28T01:26:40.317Z,30.70
2018-11-28T01:29:08.598Z,25.10
2018-11-28T01:31:36.442Z,26.00
2018-11-28T01:34:04.307Z,25.83
2018-11-28T01:36:32.499Z,23.13
2018-11-28T01:39:00.349Z,25.47
2018-11-28T01:41:28.281Z,25.73
2018-11-28T01:43:56.150Z,30.80
2018-11-28T01:46:24.095Z,25.20
2018-11-28T01:48:51.956Z,29.20
2018-11-28T01:51:19.834Z,27.00
2018-11-28T01:53:47.813Z,25.33
2018-11-28T01:56:15.680Z,32.27
2018-11-28T01:58:43.545Z,33.33
2018-11-28T02:01:11.441Z,26.60
2018-11-28T02:03:39.379Z,28.90
2018-11-28T02:06:07.269Z,30.27
2018-11-28T02:08:35.142Z,26.83
2018-11-28T02:11:02.988Z,30.03
2018-11-28T02:13:30.865Z,29.07
2018-11-28T02:15:58.740Z,26.97
2018-11-28T02:18:27.177Z,27.70
2018-11-28T02:20:55.133Z,28.93
2018-11-28T02:23:23.187Z,28.23
2018-11-28T02:25:51.041Z,30.23
2018-11-28T02:28:18.972Z,29.03
2018-11-28T02:30:46.927Z,23.13
2018-11-28T02:33:14.811Z,22.90
2018-11-28T02:35:42.680Z,26.67
2018-11-28T02:38:10.568Z,32.07
2018-11-28T02:40:38.405Z,30.03
2018-11-28T02:43:06.748Z,24.57
2018-11-28T02:45:34.606Z,26.27
2018-11-28T02:48:02.477Z,26.90
2018-11-28T02:50:30.402Z,25.73
2018-11-28T02:52:58.258Z,25.57
2018-11-28T02:55:26.106Z,26.47
2018-11-28T02:57:53.970Z,24.60
2018-11-28T03:00:23.254Z,25.27
2018-11-28T03:02:51.186Z,29.67
2018-11-28T03:05:19.110Z,26.07
2018-11-28T03:07:46.966Z,25.67
2018-11-28T03:10:17.304Z,30.47
2018-11-28T03:12:45.153Z,29.00
2018-11-28T03:15:13.890Z,24.40
2018-11-28T03:17:41.774Z,25.90
2018-11-28T03:20:10.854Z,24.10
2018-11-28T03:22:39.346Z,28.37
2018-11-28T03:25:08.234Z,28.97
2018-11-28T03:27:36.134Z,27.97
2018-11-28T03:30:05.126Z,29.13
2018-11-28T03:32:33.008Z,27.03
2018-11-28T03:35:00.873Z,28.70
2018-11-28T03:37:28.729Z,27.03
2018-11-28T03:39:56.613Z,26.20
2018-11-28T03:42:24.654Z,28.43
2018-11-28T03:44:52.514Z,28.07
2018-11-28T03:47:20.382Z,24.13
2018-11-28T03:49:48.266Z,28.37
2018-11-28T03:52:16.113Z,26.63
2018-11-28T03:54:44.023Z,27.37
2018-11-28T03:57:11.872Z,20.73
2018-11-28T03:59:39.724Z,28.97
2018-11-28T04:02:07.592Z,24.83
2018-11-28T04:04:35.439Z,27.10
2018-11-28T04:07:03.300Z,25.90
2018-11-28T04:09:31.163Z,24.13
2018-11-28T04:11:59.034Z,24.00
2018-11-28T04:14:26.905Z,23.87
2018-11-28T04:16:55.114Z,27.17
2018-11-28T04:19:23.018Z,29.93
2018-11-28T04:21:50.872Z,27.33
2018-11-28T04:24:18.758Z,28.20
2018-11-28T04:26:46.985Z,26.90
2018-11-28T04:29:14.851Z,25.17
2018-11-28T04:31:42.722Z,26.20
2018-11-28T04:34:10.579Z,23.37
2018-11-28T04:36:38.433Z,26.13
2018-11-28T04:39:07.458Z,23.93
2018-11-28T04:41:35.352Z,23.63
2018-11-28T04:44:03.232Z,22.47
2018-11-28T04:46:31.071Z,23.83
2018-11-28T04:48:58.937Z,23.60
2018-11-28T04:51:26.812Z,23.77
2018-11-28T04:53:54.674Z,19.93
2018-11-28T04:56:22.595Z,22.83
2018-11-28T04:58:50.485Z,22.40
2018-11-28T05:01:18.389Z,21.67
2018-11-28T05:03:46.289Z,19.33
2018-11-28T05:06:18.478Z,18.77
2018-11-28T05:08:46.890Z,22.77
2018-11-28T05:11:14.805Z,24.03
2018-11-28T05:13:42.691Z,25.23
2018-11-28T05:16:10.579Z,23.77
2018-11-28T05:18:38.434Z,21.33
2018-11-28T05:21:06.323Z,21.90
2018-11-28T05:23:34.176Z,20.30
2018-11-28T05:26:02.022Z,27.67
2018-11-28T05:28:29.910Z,24.27
2018-11-28T05:30:57.836Z,24.83
2018-11-28T05:33:25.681Z,26.40
2018-11-28T05:35:53.573Z,30.03
2018-11-28T05:38:21.431Z,32.80
2018-11-28T05:40:49.294Z,30.23
2018-11-28T05:43:17.734Z,30.03
2018-11-28T05:45:45.578Z,28.97
2018-11-28T05:48:13.449Z,26.60
2018-11-28T05:50:41.307Z,32.50
2018-11-28T05:53:09.171Z,32.70
2018-11-28T05:55:37.302Z,28.47
2018-11-28T05:58:05.594Z,26.07
2018-11-28T06:00:40.557Z,29.03
2018-11-28T06:03:12.021Z,27.60
2018-11-28T06:05:40.327Z,29.00
2018-11-28T06:08:08.217Z,23.27
2018-11-28T06:10:36.099Z,22.17
2018-11-28T06:13:03.997Z,18.73
2018-11-28T06:15:31.919Z,26.13
2018-11-28T06:17:59.806Z,17.12
2018-11-28T06:20:27.705Z,22.53
2018-11-28T06:22:55.634Z,15.53
2018-11-28T06:25:23.503Z,18.92
2018-11-28T06:27:51.416Z,18.35
2018-11-28T06:30:19.921Z,14.40
2018-11-28T06:32:51.224Z,18.65
2018-11-28T06:35:15.793Z,16.55
2018-11-28T06:37:43.921Z,14.55
2018-11-28T06:40:12.513Z,16.20
2018-11-28T06:42:40.597Z,17.27
2018-11-28T06:45:09.349Z,19.15
2018-11-28T06:47:37.253Z,15.37
2018-11-28T06:50:06.584Z,17.17
2018-11-28T06:52:34.431Z,15.70
2018-11-28T06:55:02.321Z,18.90
2018-11-28T06:57:30.169Z,19.00
2018-11-28T06:59:58.023Z,19.93
2018-11-28T07:02:25.913Z,19.40
2018-11-28T07:04:53.782Z,16.93
2018-11-28T07:07:21.805Z,20.77
2018-11-28T07:09:49.693Z,13.95
2018-11-28T07:12:17.623Z,19.33
2018-11-28T07:14:45.473Z,15.47
2018-11-28T07:17:13.328Z,15.30
2018-11-28T07:19:41.198Z,15.23
2018-11-28T07:22:09.046Z,18.07
2018-11-28T07:24:36.893Z,15.57
2018-11-28T07:27:04.797Z,12.53
2018-11-28T07:29:32.671Z,14.60
2018-11-28T07:32:00.518Z,16.90
2018-11-28T07:34:28.366Z,18.00
2018-11-28T07:36:56.198Z,14.70
2018-11-28T07:39:24.312Z,17.00
2018-11-28T07:41:52.161Z,16.07
2018-11-28T07:44:20.930Z,15.90
2018-11-28T07:46:48.797Z,17.73
2018-11-28T07:49:16.663Z,18.33
2018-11-28T07:51:44.560Z,15.50
2018-11-28T07:54:12.691Z,18.33
2018-11-28T07:56:40.598Z,18.30
2018-11-28T07:59:08.464Z,16.93
2018-11-28T08:01:36.341Z,18.30
2018-11-28T08:04:04.218Z,23.80
2018-11-28T08:06:32.122Z,17.20
2018-11-28T08:08:59.989Z,18.23
2018-11-28T08:11:28.241Z,15.17
2018-11-28T08:13:56.119Z,19.13
2018-11-28T08:16:23.998Z,18.40
2018-11-28T08:18:51.890Z,17.53
2018-11-28T08:21:19.757Z,23.03
2018-11-28T08:23:47.622Z,19.10
2018-11-28T08:26:15.470Z,19.20
2018-11-28T08:28:43.400Z,20.37
2018-11-28T08:31:11.389Z,23.13
2018-11-28T08:33:39.245Z,19.07
2018-11-28T08:36:07.103Z,25.43
2018-11-28T08:38:35.040Z,25.60
2018-11-28T08:41:02.920Z,20.83
2018-11-28T08:43:30.847Z,19.97
2018-11-28T08:45:58.697Z,19.03
2018-11-28T08:48:26.638Z,21.50
2018-11-28T08:50:54.509Z,18.83
2018-11-28T08:53:22.438Z,17.10
2018-11-28T08:55:50.363Z,19.20
2018-11-28T08:58:18.216Z,18.77
2018-11-28T09:00:46.193Z,21.93
2018-11-28T09:03:14.081Z,19.70
2018-11-28T09:05:41.979Z,24.77
2018-11-28T09:08:09.851Z,25.87
2018-11-28T09:10:37.721Z,20.23
2018-11-28T09:13:06.163Z,23.23
2018-11-28T09:15:34.242Z,17.97
2018-11-28T09:18:02.125Z,19.33
2018-11-28T09:20:29.972Z,21.43
2018-11-28T09:22:57.863Z,24.83
2018-11-28T09:25:25.771Z,20.80
2018-11-28T09:27:55.438Z,21.53
2018-11-28T09:30:23.337Z,18.80
2018-11-28T09:32:51.559Z,24.37
2018-11-28T09:35:19.753Z,21.40
2018-11-28T09:37:47.687Z,22.27
2018-11-28T09:40:17.056Z,21.23
2018-11-28T09:42:45.147Z,21.67
2018-11-28T09:45:15.612Z,23.17
2018-11-28T09:47:43.551Z,18.73
2018-11-28T09:50:12.215Z,21.47
2018-11-28T09:52:40.142Z,21.17
2018-11-28T09:55:09.311Z,24.03
2018-11-28T09:57:37.192Z,20.97
2018-11-28T10:00:05.464Z,29.00
2018-11-28T10:02:33.369Z,20.50
2018-11-28T10:05:03.020Z,26.10
2018-11-28T10:07:29.165Z,19.37
2018-11-28T10:09:57.040Z,19.67
2018-11-28T10:12:25.082Z,24.70
2018-11-28T10:14:52.999Z,20.00
2018-11-28T10:17:21.065Z,25.57
2018-11-28T10:19:49.071Z,19.20
2018-11-28T10:22:16.946Z,21.87
2018-11-28T10:24:44.920Z,22.27
2018-11-28T10:27:12.810Z,25.80
2018-11-28T10:29:41.081Z,27.93
2018-11-28T10:32:08.944Z,22.87
2018-11-28T10:34:36.815Z,23.53
2018-11-28T10:37:04.706Z,22.67
2018-11-28T10:39:32.552Z,20.73
2018-11-28T10:42:00.434Z,22.33
2018-11-28T10:44:28.313Z,22.73
2018-11-28T10:46:56.209Z,24.10
2018-11-28T10:49:24.054Z,21.67
2018-11-28T10:51:51.973Z,19.27
2018-11-28T10:54:19.833Z,21.10
2018-11-28T10:56:47.687Z,18.03
2018-11-28T10:59:15.543Z,17.57
2018-11-28T11:01:48.523Z,21.23
2018-11-28T11:04:16.535Z,17.10
2018-11-28T11:06:49.609Z,21.87
2018-11-28T11:09:22.758Z,20.27
2018-11-28T11:11:55.861Z,17.67
2018-11-28T11:14:28.861Z,23.23
2018-11-28T11:16:56.726Z,16.07
2018-11-28T11:19:24.659Z,18.80
2018-11-28T11:21:52.702Z,17.63
2018-11-28T11:24:20.708Z,17.77
2018-11-28T11:26:48.553Z,14.17
2018-11-28T11:29:16.393Z,15.30
2018-11-28T11:31:44.276Z,15.87
2018-11-28T11:34:12.157Z,16.17
2018-11-28T11:36:40.001Z,17.80
2018-11-28T11:39:08.328Z,15.07
2018-11-28T11:41:36.202Z,12.77
2018-11-28T11:44:04.152Z,18.73
2018-11-28T11:46:32.017Z,13.67
2018-11-28T11:48:59.946Z,15.73
2018-11-28T11:51:27.791Z,14.37
2018-11-28T11:53:55.658Z,29.33
2018-11-28T11:56:23.606Z,16.93
2018-11-28T11:58:51.535Z,16.47
2018-11-28T12:01:19.558Z,12.07
2018-11-28T12:03:47.482Z,14.37
2018-11-28T12:06:15.478Z,15.07
2018-11-28T12:08:43.321Z,12.73
2018-11-28T12:11:11.201Z,16.70
2018-11-28T12:13:39.047Z,11.37
2018-11-28T12:16:07.029Z,10.30
2018-11-28T12:18:34.950Z,10.73
2018-11-28T12:21:03.755Z,11.20
2018-11-28T12:23:31.679Z,10.07
2018-11-28T12:25:59.532Z,11.60
2018-11-28T12:28:27.476Z,14.13
2018-11-28T12:30:55.450Z,14.23
2018-11-28T12:33:23.338Z,13.37
2018-11-28T12:35:51.198Z,13.63
2018-11-28T12:38:19.185Z,12.80
2018-11-28T12:40:47.156Z,14.23
2018-11-28T12:43:15.062Z,15.27
2018-11-28T12:45:44.319Z,16.17
2018-11-28T12:48:12.180Z,14.20
2018-11-28T12:50:40.025Z,13.20
2018-11-28T12:53:08.840Z,10.60
2018-11-28T12:55:37.205Z,11.10
2018-11-28T12:58:05.441Z,14.43
2018-11-28T13:00:35.294Z,12.53
2018-11-28T13:03:03.614Z,13.77
2018-11-28T13:05:31.478Z,15.07
2018-11-28T13:07:59.414Z,15.07
2018-11-28T13:10:28.004Z,13.07
2018-11-28T13:12:56.038Z,12.27
2018-11-28T13:15:24.658Z,11.77
2018-11-28T13:17:52.519Z,11.93
2018-11-28T13:20:20.844Z,14.43
2018-11-28T13:22:49.500Z,13.00
2018-11-28T13:25:18.138Z,15.13
2018-11-28T13:27:46.012Z,14.77
2018-11-28T13:30:14.592Z,12.67
2018-11-28T13:32:42.718Z,12.10
2018-11-28T13:35:11.080Z,14.70
2018-11-28T13:37:38.977Z,12.40
2018-11-28T13:40:08.921Z,14.30
2018-11-28T13:42:36.913Z,17.73
2018-11-28T13:45:05.545Z,13.47
2018-11-28T13:52:22.988Z,13.50
2018-11-28T13:55:37.600Z,12.73
2018-11-28T13:57:18.993Z,14.23
2018-11-28T13:59:47.196Z,13.40
2018-11-28T14:02:15.089Z,11.43
2018-11-28T14:04:43.417Z,13.23
2018-11-28T14:07:11.249Z,15.30
2018-11-28T14:09:39.156Z,14.70
2018-11-28T14:12:07.024Z,15.87
2018-11-28T14:14:34.911Z,18.90
2018-11-28T14:17:02.766Z,13.80
2018-11-28T14:19:30.749Z,10.87
2018-11-28T14:21:58.791Z,11.60
2018-11-28T14:24:26.673Z,13.87
2018-11-28T14:26:54.562Z,13.53
2018-11-28T14:29:22.527Z,11.33
2018-11-28T14:31:51.329Z,12.07
2018-11-28T14:34:19.226Z,13.50
2018-11-28T14:36:47.558Z,16.87
2018-11-28T14:39:15.420Z,13.03
2018-11-28T14:41:43.990Z,11.93
2018-11-28T14:46:56.129Z,13.17
2018-11-28T14:49:24.297Z,12.03
2018-11-28T14:51:52.189Z,12.60
2018-11-28T14:54:20.056Z,11.00
2018-11-28T14:56:47.931Z,12.27
2018-11-28T14:59:15.817Z,10.80
2018-11-28T15:01:43.680Z,13.67
2018-11-28T15:04:11.533Z,14.50
2018-11-28T15:06:43.572Z,11.53
2018-11-28T15:09:16.599Z,10.77
2018-11-28T15:11:44.861Z,11.30
2018-11-28T15:14:12.734Z,13.17
2018-11-28T15:16:40.581Z,14.17
2018-11-28T15:19:08.463Z,10.30
2018-11-28T15:21:36.334Z,10.47
2018-11-28T15:24:04.223Z,10.90
2018-11-28T15:26:32.232Z,12.30
2018-11-28T15:29:00.072Z,8.80
2018-11-28T15:31:27.949Z,9.23
2018-11-28T15:33:55.938Z,9.63
2018-11-28T15:36:23.774Z,12.83
2018-11-28T15:38:51.661Z,11.03
2018-11-28T15:41:19.658Z,11.23
2018-11-28T15:43:47.508Z,11.13
2018-11-28T15:46:15.370Z,13.37
2018-11-28T15:48:43.226Z,15.60
2018-11-28T15:51:11.157Z,11.80
2018-11-28T15:56:22.801Z,14.87
2018-11-28T15:58:50.683Z,13.07
2018-11-28T16:01:18.662Z,13.07
2018-11-28T16:03:46.693Z,8.43
2018-11-28T16:06:14.623Z,16.57
2018-11-28T16:08:42.517Z,13.53
2018-11-28T16:11:11.606Z,9.17
2018-11-28T16:13:39.937Z,14.10
2018-11-28T16:16:08.193Z,14.30
2018-11-28T16:18:36.306Z,13.00
2018-11-28T16:21:04.202Z,14.40
2018-11-28T16:23:32.122Z,10.30
2018-11-28T16:26:00.011Z,14.73
2018-11-28T16:28:27.954Z,12.53
2018-11-28T16:30:55.874Z,12.60
2018-11-28T16:33:23.787Z,13.00
2018-11-28T16:35:51.893Z,10.23
2018-11-28T16:38:19.773Z,16.33
2018-11-28T16:40:47.652Z,14.20
2018-11-28T16:43:15.511Z,16.73
2018-11-28T16:45:43.487Z,9.53
2018-11-28T16:48:11.354Z,12.77
2018-11-28T16:50:39.608Z,11.17
2018-11-28T16:53:07.599Z,10.03
2018-11-28T16:55:35.465Z,22.70
2018-11-28T16:58:03.426Z,15.63
2018-11-28T17:00:31.888Z,17.07
2018-11-28T17:02:59.917Z,19.77
2018-11-28T17:05:27.784Z,15.83
2018-11-28T17:07:55.697Z,20.73
2018-11-28T17:10:24.433Z,19.57
2018-11-28T17:12:53.349Z,22.30
2018-11-28T17:15:21.338Z,18.37
2018-11-28T17:17:49.355Z,20.27
2018-11-28T17:20:20.842Z,19.80
2018-11-28T17:22:49.233Z,17.53
2018-11-28T17:25:21.621Z,16.60
2018-11-28T17:27:49.525Z,17.87
2018-11-28T17:30:18.934Z,20.27
2018-11-28T17:32:46.209Z,17.73
2018-11-28T17:35:14.493Z,20.23
2018-11-28T17:37:42.404Z,20.77
2018-11-28T17:40:12.011Z,20.17
2018-11-28T17:42:39.945Z,24.80
2018-11-28T17:45:09.706Z,25.63
2018-11-28T17:47:37.604Z,24.47
2018-11-28T17:50:07.717Z,23.37
2018-11-28T17:52:35.599Z,22.10
2018-11-28T17:55:03.514Z,21.30
2018-11-28T17:57:31.440Z,22.43
2018-11-28T17:59:59.345Z,23.17
2018-11-28T18:02:27.249Z,22.03
2018-11-28T18:04:55.149Z,25.33
2018-11-28T18:07:23.042Z,26.50
2018-11-28T18:09:50.910Z,27.67
2018-11-28T18:12:18.764Z,28.23
2018-11-28T18:14:46.620Z,25.80
2018-11-28T18:17:14.520Z,25.97
2018-11-28T18:19:42.403Z,23.60
2018-11-28T18:22:10.772Z,24.50
2018-11-28T18:24:38.879Z,27.20
2018-11-28T18:27:06.805Z,19.90
2018-11-28T18:29:34.911Z,27.87
2018-11-28T18:32:02.817Z,23.80
2018-11-28T18:34:30.682Z,20.80
2018-11-28T18:36:58.598Z,22.77
2018-11-28T18:39:26.470Z,26.23
2018-11-28T18:41:54.359Z,26.93
2018-11-28T18:44:22.545Z,24.87
2018-11-28T18:46:50.381Z,24.87
2018-11-28T18:49:18.300Z,24.37
2018-11-28T18:51:46.227Z,22.63
2018-11-28T18:54:14.142Z,22.50
2018-11-28T18:56:42.316Z,18.23
2018-11-28T18:59:10.149Z,21.30
2018-11-28T19:01:38.056Z,24.47
2018-11-28T19:04:06.141Z,23.57
2018-11-28T19:06:34.007Z,21.27
2018-11-28T19:09:01.875Z,20.90
2018-11-28T19:11:29.853Z,19.80
2018-11-28T19:13:57.894Z,20.10
2018-11-28T19:16:26.286Z,21.93
2018-11-28T19:18:54.198Z,20.20
2018-11-28T19:21:22.119Z,20.77
2018-11-28T19:23:50.002Z,25.77
2018-11-28T19:26:18.204Z,22.00
2018-11-28T19:28:46.084Z,23.23
2018-11-28T19:31:14.121Z,22.30
2018-11-28T19:33:42.174Z,29.57
2018-11-28T19:36:10.378Z,28.27
2018-11-28T19:38:38.507Z,26.20
2018-11-28T19:41:07.451Z,24.17
2018-11-28T19:43:35.390Z,21.70
2018-11-28T19:46:03.641Z,20.97
2018-11-28T19:48:31.733Z,29.33
2018-11-28T19:50:59.763Z,26.23
2018-11-28T19:53:27.817Z,21.40
2018-11-28T19:55:55.988Z,25.80
2018-11-28T19:58:24.524Z,23.80
2018-11-28T20:00:52.947Z,26.73
2018-11-28T20:03:21.929Z,21.37
2018-11-28T20:05:50.189Z,22.60
2018-11-28T20:08:19.470Z,23.80
2018-11-28T20:10:47.534Z,19.57
2018-11-28T20:13:15.929Z,21.00
2018-11-28T20:15:45.161Z,21.80
2018-11-28T20:18:13.300Z,22.20
2018-11-28T20:20:41.333Z,17.87
2018-11-28T20:23:09.388Z,27.10
2018-11-28T20:25:37.488Z,21.23
2018-11-28T20:28:05.549Z,26.03
2018-11-28T20:30:35.875Z,21.67
2018-11-28T20:33:03.929Z,19.57
2018-11-28T20:35:31.944Z,21.20
2018-11-28T20:38:00.048Z,20.27
2018-11-28T20:40:28.135Z,18.50
2018-11-28T20:42:56.537Z,26.03
2018-11-28T20:45:24.845Z,24.40
2018-11-28T20:47:52.906Z,21.87
2018-11-28T20:50:22.591Z,18.27
2018-11-28T20:52:54.915Z,22.90
2018-11-28T20:55:19.641Z,25.27
2018-11-28T20:57:47.583Z,20.97
2018-11-28T21:00:15.990Z,27.23
2018-11-28T21:02:43.986Z,25.07
2018-11-28T21:05:11.991Z,25.90
2018-11-28T21:07:39.898Z,22.43
2018-11-28T21:10:14.103Z,19.80
2018-11-28T21:12:41.982Z,22.23
2018-11-28T21:15:09.901Z,20.70
2018-11-28T21:17:37.795Z,24.97
2018-11-28T21:20:08.377Z,24.60
2018-11-28T21:22:36.267Z,26.00
2018-11-28T21:25:04.290Z,26.77
2018-11-28T21:27:32.233Z,27.43
2018-11-28T21:30:00.277Z,29.50
2018-11-28T21:32:28.166Z,32.77
2018-11-28T21:34:56.087Z,36.37
2018-11-28T21:37:24.029Z,28.63
2018-11-28T21:39:55.784Z,33.80
2018-11-28T21:42:23.752Z,28.20
2018-11-28T21:44:51.670Z,29.53
2018-11-28T21:47:19.581Z,28.17
2018-11-28T21:49:47.468Z,29.20
2018-11-28T21:52:15.361Z,33.50
2018-11-28T21:54:43.255Z,26.83
2018-11-28T21:57:11.151Z,30.43
2018-11-28T21:59:39.009Z,31.43
2018-11-28T22:02:07.191Z,34.83
2018-11-28T22:04:35.098Z,26.07
2018-11-28T22:07:03.429Z,28.23
2018-11-28T22:09:34.094Z,27.00
2018-11-28T22:12:02.026Z,29.17
2018-11-28T22:14:29.885Z,27.67
2018-11-28T22:16:57.752Z,26.60
2018-11-28T22:19:25.653Z,25.03
2018-11-28T22:21:53.543Z,28.70
2018-11-28T22:24:21.465Z,34.83
2018-11-28T22:26:49.348Z,27.07
2018-11-28T22:29:17.210Z,30.80
2018-11-28T22:31:45.087Z,25.30
2018-11-28T22:34:12.961Z,28.80
2018-11-28T22:36:40.821Z,27.00
2018-11-28T22:39:09.610Z,31.07
2018-11-28T22:41:37.466Z,31.87
2018-11-28T22:44:05.362Z,31.73
2018-11-28T22:46:33.237Z,31.90
2018-11-28T22:49:01.120Z,29.27
2018-11-28T22:51:28.986Z,30.07
2018-11-28T22:53:56.879Z,25.73
2018-11-28T22:56:24.816Z,28.90
2018-11-28T22:58:52.729Z,30.13
2018-11-28T23:01:25.679Z,23.07
2018-11-28T23:03:53.599Z,27.53
2018-11-28T23:06:21.653Z,27.13
2018-11-28T23:08:49.567Z,29.03
2018-11-28T23:11:17.509Z,25.63
2018-11-28T23:13:45.518Z,30.23
2018-11-28T23:16:13.601Z,26.57
2018-11-28T23:18:41.545Z,27.67
2018-11-28T23:21:09.408Z,25.23
2018-11-28T23:23:37.282Z,30.77
2018-11-28T23:26:05.165Z,26.47
2018-11-28T23:28:33.047Z,25.57
2018-11-28T23:31:00.968Z,27.30
2018-11-28T23:33:28.889Z,28.23
2018-11-28T23:35:56.762Z,26.23
2018-11-28T23:38:24.666Z,25.60
2018-11-28T23:40:52.615Z,24.00
2018-11-28T23:43:20.554Z,23.20
2018-11-28T23:45:48.465Z,23.63
2018-11-28T23:48:16.378Z,26.40
2018-11-28T23:50:44.239Z,23.40
2018-11-28T23:53:12.126Z,20.67
2018-11-28T23:55:40.052Z,20.30
2018-11-28T23:58:07.945Z,21.40
